createdAt,value
2018-04-22T00:02:23.031Z,13.10
2018-04-22T00:04:51.305Z,13.20
2018-04-22T00:07:19.573Z,13.30
2018-04-22T00:09:47.819Z,13.30
2018-04-22T00:12:15.284Z,13.20
2018-04-22T00:14:42.775Z,13.20
2018-04-22T00:17:10.260Z,13.30
2018-04-22T00:19:37.745Z,13.30
2018-04-22T00:22:05.239Z,13.40
2018-04-22T00:24:33.489Z,13.40
2018-04-22T00:27:01.005Z,13.40
2018-04-22T00:29:28.474Z,13.40
2018-04-22T00:31:55.967Z,13.40
2018-04-22T00:34:23.432Z,13.50
2018-04-22T00:36:50.912Z,13.50
2018-04-22T00:39:18.400Z,13.50
2018-04-22T00:41:46.094Z,13.60
2018-04-22T00:44:14.132Z,13.50
2018-04-22T00:46:41.606Z,13.50
2018-04-22T00:49:09.097Z,13.40
2018-04-22T00:51:36.602Z,13.30
2018-04-22T00:54:15.817Z,13.20
2018-04-22T00:56:44.068Z,13.00
2018-04-22T00:59:11.526Z,13.00
2018-04-22T01:01:39.006Z,12.90
2018-04-22T01:04:06.493Z,12.70
2018-04-22T01:06:33.987Z,12.40
2018-04-22T01:09:01.487Z,12.40
2018-04-22T01:11:28.961Z,12.50
2018-04-22T01:13:56.429Z,12.40
2018-04-22T01:16:23.946Z,12.30
2018-04-22T01:18:51.434Z,12.30
2018-04-22T01:21:18.922Z,12.30
2018-04-22T01:23:46.414Z,12.40
2018-04-22T01:26:14.666Z,12.30
2018-04-22T01:28:42.153Z,12.30
2018-04-22T01:31:10.399Z,12.20
2018-04-22T01:33:37.874Z,12.10
2018-04-22T01:36:06.133Z,12.00
2018-04-22T01:38:33.605Z,11.90
2018-04-22T01:41:01.119Z,11.90
2018-04-22T01:43:28.602Z,11.90
2018-04-22T01:45:56.082Z,11.90
2018-04-22T01:48:24.325Z,11.90
2018-04-22T01:50:51.799Z,11.90
2018-04-22T01:53:19.292Z,11.90
2018-04-22T01:55:47.527Z,11.80
2018-04-22T01:58:15.021Z,11.80
2018-04-22T02:00:43.294Z,11.80
2018-04-22T02:03:11.533Z,11.80
2018-04-22T02:05:39.032Z,11.80
2018-04-22T02:08:07.279Z,11.70
2018-04-22T02:10:34.759Z,11.60
2018-04-22T02:13:03.010Z,11.60
2018-04-22T02:15:30.489Z,11.70
2018-04-22T02:17:57.993Z,11.50
2018-04-22T02:20:25.487Z,11.50
2018-04-22T02:22:52.989Z,11.40
2018-04-22T02:25:20.458Z,11.40
2018-04-22T02:27:47.919Z,11.30
2018-04-22T02:30:15.431Z,11.20
2018-04-22T02:32:42.885Z,11.20
2018-04-22T02:35:10.397Z,11.10
2018-04-22T02:37:37.898Z,11.10
2018-04-22T02:40:05.363Z,11.00
2018-04-22T02:42:33.636Z,11.00
2018-04-22T02:45:01.107Z,10.90
2018-04-22T02:47:29.362Z,11.00
2018-04-22T02:49:56.839Z,11.00
2018-04-22T02:52:24.326Z,11.00
2018-04-22T02:54:51.814Z,10.90
2018-04-22T02:57:19.305Z,10.90
2018-04-22T02:59:47.565Z,10.90
2018-04-22T03:02:15.819Z,10.90
2018-04-22T03:04:43.290Z,10.90
2018-04-22T03:07:10.780Z,10.90
2018-04-22T03:09:38.250Z,10.90
2018-04-22T03:12:05.750Z,10.90
2018-04-22T03:14:33.208Z,10.90
2018-04-22T03:17:00.702Z,10.80
2018-04-22T03:19:28.950Z,10.70
2018-04-22T03:21:56.408Z,10.70
2018-04-22T03:24:23.904Z,10.70
2018-04-22T03:26:51.382Z,10.70
2018-04-22T03:29:18.876Z,10.60
2018-04-22T03:31:46.360Z,10.70
2018-04-22T03:34:14.604Z,10.60
2018-04-22T03:36:42.080Z,10.50
2018-04-22T03:39:09.531Z,10.60
2018-04-22T03:41:37.010Z,10.60
2018-04-22T03:44:04.500Z,10.50
2018-04-22T03:46:32.006Z,10.60
2018-04-22T03:48:59.474Z,10.60
2018-04-22T03:51:28.513Z,10.80
2018-04-22T03:53:55.990Z,10.80
2018-04-22T03:56:23.478Z,10.80
2018-04-22T03:58:51.002Z,10.80
2018-04-22T04:01:18.484Z,10.80
2018-04-22T04:03:45.961Z,10.80
2018-04-22T04:06:13.439Z,10.70
2018-04-22T04:08:40.913Z,10.60
2018-04-22T04:11:08.419Z,10.70
2018-04-22T04:13:35.913Z,10.60
2018-04-22T04:16:03.412Z,10.60
2018-04-22T04:18:52.381Z,10.60
2018-04-22T04:21:31.568Z,10.60
2018-04-22T04:27:25.423Z,10.50
2018-04-22T04:29:52.899Z,10.50
2018-04-22T04:32:20.386Z,10.40
2018-04-22T04:34:47.877Z,10.40
2018-04-22T04:37:15.361Z,10.30
2018-04-22T04:39:42.863Z,10.30
2018-04-22T04:42:10.325Z,10.30
2018-04-22T04:44:37.822Z,10.40
2018-04-22T04:47:05.296Z,10.40
2018-04-22T04:49:32.780Z,10.40
2018-04-22T04:52:00.274Z,10.40
2018-04-22T04:54:27.767Z,10.30
2018-04-22T04:56:56.038Z,10.40
2018-04-22T04:59:23.518Z,10.40
2018-04-22T05:01:51.767Z,10.50
2018-04-22T05:04:19.244Z,10.40
2018-04-22T05:06:47.486Z,10.70
2018-04-22T05:09:14.973Z,10.70
2018-04-22T05:11:43.222Z,10.80
2018-04-22T05:14:10.712Z,10.70
2018-04-22T05:16:38.986Z,10.80
2018-04-22T05:19:07.228Z,10.80
2018-04-22T05:21:34.719Z,10.80
2018-04-22T05:24:02.948Z,11.00
2018-04-22T05:26:30.448Z,11.00
2018-04-22T05:28:58.694Z,11.30
2018-04-22T05:31:26.210Z,11.30
2018-04-22T05:33:53.694Z,11.40
2018-04-22T05:36:21.171Z,11.60
2018-04-22T05:38:48.668Z,11.80
2018-04-22T05:41:16.888Z,12.10
2018-04-22T05:43:44.390Z,12.00
2018-04-22T05:46:12.620Z,12.60
2018-04-22T05:48:40.118Z,12.60
2018-04-22T05:51:07.590Z,12.70
2018-04-22T05:53:35.075Z,12.70
2018-04-22T05:56:02.549Z,13.00
2018-04-22T05:58:30.018Z,13.00
2018-04-22T06:00:57.580Z,13.30
2018-04-22T06:03:25.054Z,13.40
2018-04-22T06:05:52.542Z,13.60
2018-04-22T06:08:20.035Z,13.50
2018-04-22T06:10:47.506Z,13.70
2018-04-22T06:13:14.996Z,13.60
2018-04-22T06:15:43.244Z,13.60
2018-04-22T06:18:10.732Z,13.60
2018-04-22T06:20:38.993Z,13.80
2018-04-22T06:23:06.484Z,13.80
2018-04-22T06:25:33.955Z,14.10
2018-04-22T06:28:01.419Z,14.60
2018-04-22T06:30:28.925Z,15.00
2018-04-22T06:32:56.416Z,15.40
2018-04-22T06:35:23.922Z,16.00
2018-04-22T06:37:51.403Z,16.20
2018-04-22T06:40:18.952Z,16.80
2018-04-22T06:42:46.396Z,16.90
2018-04-22T06:45:13.867Z,16.70
2018-04-22T06:47:41.362Z,16.60
2018-04-22T06:50:08.850Z,16.90
2018-04-22T06:52:36.366Z,17.50
2018-04-22T06:55:04.616Z,19.60
2018-04-22T06:57:32.102Z,19.60
2018-04-22T07:00:00.382Z,20.90
2018-04-22T07:02:28.647Z,23.70
2018-04-22T07:04:56.889Z,21.90
2018-04-22T07:07:24.403Z,21.90
2018-04-22T07:09:51.903Z,22.80
2018-04-22T07:12:19.517Z,23.00
2018-04-22T07:14:46.997Z,22.70
2018-04-22T07:17:14.523Z,23.30
2018-04-22T07:19:42.038Z,23.40
2018-04-22T07:22:09.989Z,23.80
2018-04-22T07:24:37.492Z,24.30
2018-04-22T07:27:04.970Z,24.30
2018-04-22T07:29:32.454Z,23.80
2018-04-22T07:31:59.931Z,23.20
2018-04-22T07:34:27.417Z,23.10
2018-04-22T07:36:54.911Z,23.10
2018-04-22T07:39:22.415Z,23.20
2018-04-22T07:41:49.908Z,23.40
2018-04-22T07:44:18.156Z,23.50
2018-04-22T07:46:45.996Z,23.50
2018-04-22T07:49:13.492Z,24.10
2018-04-22T07:51:40.966Z,23.90
2018-04-22T07:54:08.460Z,24.10
2018-04-22T07:56:35.953Z,24.50
2018-04-22T07:59:03.948Z,25.20
2018-04-22T08:01:31.577Z,25.10
2018-04-22T08:03:59.099Z,24.60
2018-04-22T08:06:26.598Z,24.70
2018-04-22T08:08:55.336Z,24.60
2018-04-22T08:11:22.846Z,24.70
2018-04-22T08:13:50.343Z,25.10
2018-04-22T08:16:17.865Z,25.30
2018-04-22T08:18:45.331Z,24.90
2018-04-22T08:21:13.612Z,25.00
2018-04-22T08:23:41.881Z,25.00
2018-04-22T08:26:09.362Z,25.00
2018-04-22T08:28:36.862Z,25.00
2018-04-22T08:31:04.368Z,25.30
2018-04-22T08:33:31.919Z,25.70
2018-04-22T08:35:59.710Z,25.80
2018-04-22T08:38:27.399Z,25.70
2018-04-22T08:40:56.111Z,25.10
2018-04-22T08:43:23.632Z,24.40
2018-04-22T08:45:51.149Z,24.20
2018-04-22T08:48:18.630Z,23.80
2018-04-22T08:50:46.165Z,23.80
2018-04-22T08:53:14.430Z,23.60
2018-04-22T08:55:41.937Z,23.50
2018-04-22T08:58:09.449Z,23.30
2018-04-22T09:00:36.961Z,23.30
2018-04-22T09:03:04.448Z,23.50
2018-04-22T09:05:31.973Z,23.50
2018-04-22T09:07:59.455Z,23.50
2018-04-22T09:10:26.960Z,23.50
2018-04-22T09:12:55.250Z,24.00
2018-04-22T09:15:22.776Z,24.00
2018-04-22T09:17:50.344Z,24.40
2018-04-22T09:20:18.639Z,24.80
2018-04-22T09:22:46.184Z,24.70
2018-04-22T09:25:14.436Z,24.80
2018-04-22T09:27:41.920Z,24.80
2018-04-22T09:30:10.216Z,25.00
2018-04-22T09:32:37.694Z,24.90
2018-04-22T09:35:05.178Z,25.20
2018-04-22T09:37:32.712Z,25.30
2018-04-22T09:40:00.244Z,24.80
2018-04-22T09:42:27.742Z,24.80
2018-04-22T09:44:55.268Z,25.00
2018-04-22T09:47:22.760Z,24.90
2018-04-22T09:49:50.253Z,25.20
2018-04-22T09:52:18.524Z,25.70
2018-04-22T09:54:46.021Z,25.80
2018-04-22T09:57:13.553Z,25.70
2018-04-22T09:59:41.043Z,25.50
2018-04-22T10:02:16.187Z,25.70
2018-04-22T10:04:44.570Z,25.80
2018-04-22T10:07:12.085Z,25.70
2018-04-22T10:09:40.331Z,25.90
2018-04-22T10:12:07.838Z,25.90
2018-04-22T10:14:35.316Z,26.00
2018-04-22T10:17:02.793Z,26.20
2018-04-22T10:19:30.309Z,26.00
2018-04-22T10:21:58.545Z,25.50
2018-04-22T10:24:26.019Z,25.50
2018-04-22T10:26:53.500Z,25.20
2018-04-22T10:29:21.021Z,25.60
2018-04-22T10:31:49.280Z,26.20
2018-04-22T10:34:16.780Z,26.20
2018-04-22T10:36:45.064Z,26.20
2018-04-22T10:39:12.554Z,26.10
2018-04-22T10:41:40.057Z,26.50
2018-04-22T10:44:08.305Z,27.00
2018-04-22T10:46:35.798Z,26.90
2018-04-22T10:49:05.950Z,27.00
2018-04-22T10:51:33.460Z,27.00
2018-04-22T10:54:00.989Z,26.60
2018-04-22T10:56:28.531Z,26.30
2018-04-22T10:58:56.057Z,26.50
2018-04-22T11:01:24.282Z,27.10
2018-04-22T11:03:51.834Z,27.20
2018-04-22T11:06:19.330Z,27.20
2018-04-22T11:08:46.875Z,27.30
2018-04-22T11:11:14.375Z,27.30
2018-04-22T11:13:41.858Z,27.10
2018-04-22T11:16:09.333Z,26.80
2018-04-22T11:18:36.798Z,27.10
2018-04-22T11:21:04.313Z,27.50
2018-04-22T11:23:31.860Z,26.90
2018-04-22T11:26:00.116Z,26.90
2018-04-22T11:28:27.580Z,26.90
2018-04-22T11:30:55.080Z,27.00
2018-04-22T11:33:22.538Z,26.90
2018-04-22T11:35:50.800Z,27.00
2018-04-22T11:38:18.296Z,26.90
2018-04-22T11:40:45.774Z,26.90
2018-04-22T11:43:13.300Z,27.00
2018-04-22T11:45:40.770Z,27.00
2018-04-22T11:48:08.306Z,27.10
2018-04-22T11:50:35.773Z,27.00
2018-04-22T11:53:03.257Z,26.90
2018-04-22T11:55:30.761Z,27.00
2018-04-22T11:57:58.234Z,27.10
2018-04-22T12:00:25.741Z,27.20
2018-04-22T12:02:53.214Z,27.10
2018-04-22T12:05:21.512Z,27.00
2018-04-22T12:07:49.001Z,27.00
2018-04-22T12:10:16.519Z,27.10
2018-04-22T12:12:44.085Z,27.20
2018-04-22T12:15:11.626Z,27.60
2018-04-22T12:17:39.132Z,27.90
2018-04-22T12:20:06.642Z,27.90
2018-04-22T12:22:34.951Z,28.10
2018-04-22T12:25:02.452Z,28.10
2018-04-22T12:27:30.076Z,28.30
2018-04-22T12:29:57.614Z,28.10
2018-04-22T12:32:25.222Z,28.00
2018-04-22T12:34:52.703Z,28.20
2018-04-22T12:37:20.185Z,28.40
2018-04-22T12:39:48.448Z,28.00
2018-04-22T12:42:16.732Z,27.80
2018-04-22T12:44:44.981Z,28.20
2018-04-22T12:47:12.451Z,28.10
2018-04-22T12:49:40.707Z,29.00
2018-04-22T12:52:08.167Z,28.90
2018-04-22T12:54:35.643Z,28.90
2018-04-22T12:57:03.972Z,29.50
2018-04-22T12:59:31.484Z,29.40
2018-04-22T13:01:58.980Z,29.40
2018-04-22T13:04:26.451Z,29.60
2018-04-22T13:06:53.951Z,29.90
2018-04-22T13:09:22.257Z,30.20
2018-04-22T13:11:49.744Z,30.10
2018-04-22T13:14:17.243Z,30.10
2018-04-22T13:16:45.518Z,30.00
2018-04-22T13:19:13.921Z,30.90
2018-04-22T13:21:41.395Z,30.90
2018-04-22T13:24:08.897Z,31.30
2018-04-22T13:26:36.366Z,31.00
2018-04-22T13:29:04.627Z,30.80
2018-04-22T13:31:32.110Z,30.80
2018-04-22T13:34:00.368Z,28.80
2018-04-22T13:36:27.865Z,28.80
2018-04-22T13:38:55.355Z,28.60
2018-04-22T13:41:22.853Z,28.70
2018-04-22T13:43:50.375Z,28.30
2018-04-22T13:46:17.865Z,28.30
2018-04-22T13:48:45.402Z,28.50
2018-04-22T13:51:12.874Z,28.60
2018-04-22T13:53:40.714Z,28.20
2018-04-22T13:56:08.194Z,28.20
2018-04-22T13:58:35.675Z,28.60
2018-04-22T14:01:03.145Z,29.30
2018-04-22T14:03:30.648Z,30.40
2018-04-22T14:05:58.112Z,30.70
2018-04-22T14:08:25.609Z,30.40
2018-04-22T14:10:53.867Z,30.00
2018-04-22T14:13:21.355Z,30.00
2018-04-22T14:15:48.857Z,30.30
2018-04-22T14:18:16.843Z,30.40
2018-04-22T14:20:44.336Z,30.80
2018-04-22T14:23:11.849Z,30.70
2018-04-22T14:25:39.340Z,29.90
2018-04-22T14:28:07.609Z,29.30
2018-04-22T14:30:35.891Z,29.40
2018-04-22T14:33:04.152Z,29.70
2018-04-22T14:35:31.616Z,29.70
2018-04-22T14:37:59.958Z,30.00
2018-04-22T14:40:27.416Z,29.90
2018-04-22T14:42:54.912Z,30.20
2018-04-22T14:45:34.140Z,29.60
2018-04-22T14:48:02.399Z,29.50
2018-04-22T14:50:29.905Z,29.50
2018-04-22T14:52:57.401Z,29.10
2018-04-22T14:55:24.891Z,29.00
2018-04-22T14:57:53.209Z,28.00
2018-04-22T15:00:20.656Z,28.00
2018-04-22T15:02:48.127Z,27.60
2018-04-22T15:05:15.637Z,27.30
2018-04-22T15:07:43.116Z,27.40
2018-04-22T15:10:10.599Z,26.80
2018-04-22T15:12:38.097Z,26.70
2018-04-22T15:15:05.590Z,26.70
2018-04-22T15:17:33.124Z,26.60
2018-04-22T15:20:01.396Z,26.30
2018-04-22T15:22:28.869Z,26.30
2018-04-22T15:24:57.157Z,26.00
2018-04-22T15:27:24.595Z,26.00
2018-04-22T15:29:52.847Z,26.80
2018-04-22T15:32:20.337Z,26.70
2018-04-22T15:34:48.621Z,26.30
2018-04-22T15:37:16.854Z,26.10
2018-04-22T15:39:44.372Z,26.00
2018-04-22T15:42:11.843Z,26.00
2018-04-22T15:44:39.332Z,26.40
2018-04-22T15:47:06.813Z,27.10
2018-04-22T15:49:34.322Z,27.80
2018-04-22T15:52:01.835Z,28.60
2018-04-22T15:54:30.093Z,28.10
2018-04-22T15:56:57.567Z,28.10
2018-04-22T15:59:25.835Z,27.40
2018-04-22T16:01:54.093Z,27.10
2018-04-22T16:04:21.590Z,27.00
2018-04-22T16:06:49.090Z,26.70
2018-04-22T16:09:16.590Z,27.00
2018-04-22T16:11:44.242Z,27.10
2018-04-22T16:14:11.749Z,27.10
2018-04-22T16:16:39.232Z,26.90
2018-04-22T16:19:06.745Z,27.00
2018-04-22T16:21:34.225Z,27.00
2018-04-22T16:24:01.741Z,26.70
2018-04-22T16:26:29.222Z,26.40
2018-04-22T16:28:56.712Z,26.20
2018-04-22T16:31:24.224Z,25.70
2018-04-22T16:33:52.470Z,25.20
2018-04-22T16:36:19.995Z,25.10
2018-04-22T16:38:47.460Z,25.00
2018-04-22T16:41:15.721Z,24.70
2018-04-22T16:43:43.195Z,24.60
2018-04-22T16:46:10.667Z,24.80
2018-04-22T16:48:38.163Z,24.70
2018-04-22T16:51:06.403Z,24.20
2018-04-22T16:53:34.654Z,24.20
2018-04-22T16:56:02.125Z,24.20
2018-04-22T16:58:29.605Z,24.10
2018-04-22T17:00:57.102Z,24.00
2018-04-22T17:03:24.589Z,23.80
2018-04-22T17:05:52.155Z,23.70
2018-04-22T17:08:19.586Z,23.70
2018-04-22T17:10:47.090Z,23.60
2018-04-22T17:13:14.582Z,23.50
2018-04-22T17:15:42.053Z,23.40
2018-04-22T17:18:09.549Z,23.30
2018-04-22T17:20:37.015Z,23.20
2018-04-22T17:23:04.477Z,23.10
2018-04-22T17:25:31.983Z,23.00
2018-04-22T17:27:59.459Z,23.00
2018-04-22T17:30:26.937Z,22.90
2018-04-22T17:32:54.417Z,22.80
2018-04-22T17:35:21.907Z,22.70
2018-04-22T17:37:49.433Z,22.70
2018-04-22T17:40:16.904Z,22.60
2018-04-22T17:42:44.407Z,22.50
2018-04-22T17:45:12.652Z,22.40
2018-04-22T17:47:40.134Z,22.40
2018-04-22T17:50:07.645Z,22.40
2018-04-22T17:52:35.132Z,22.30
2018-04-22T17:55:02.639Z,22.30
2018-04-22T17:57:30.116Z,22.20
2018-04-22T17:59:57.597Z,22.10
2018-04-22T18:02:25.091Z,22.00
2018-04-22T18:04:52.587Z,21.90
2018-04-22T18:07:20.132Z,21.80
2018-04-22T18:09:47.667Z,21.80
2018-04-22T18:12:15.451Z,21.70
2018-04-22T18:14:42.976Z,21.60
2018-04-22T18:17:10.492Z,21.50
2018-04-22T18:19:38.724Z,21.40
2018-04-22T18:22:06.585Z,21.40
2018-04-22T18:24:34.056Z,21.40
2018-04-22T18:27:01.570Z,21.40
2018-04-22T18:29:29.092Z,21.30
2018-04-22T18:31:56.571Z,21.30
2018-04-22T18:34:24.130Z,21.20
2018-04-22T18:36:51.639Z,21.20
2018-04-22T18:39:19.121Z,21.20
2018-04-22T18:41:46.588Z,21.10
2018-04-22T18:44:14.917Z,21.00
2018-04-22T18:46:42.404Z,21.00
2018-04-22T18:49:10.714Z,20.90
2018-04-22T18:51:39.010Z,20.80
2018-04-22T18:54:06.500Z,20.80
2018-04-22T18:56:34.727Z,20.70
2018-04-22T18:59:02.981Z,20.70
2018-04-22T19:01:30.462Z,20.60
2018-04-22T19:03:58.730Z,20.60
2018-04-22T19:06:26.227Z,20.50
2018-04-22T19:08:53.694Z,20.50
2018-04-22T19:11:21.240Z,20.50
2018-04-22T19:13:48.711Z,20.50
2018-04-22T19:16:16.241Z,20.40
2018-04-22T19:18:44.475Z,20.20
2018-04-22T19:21:11.949Z,20.20
2018-04-22T19:23:39.446Z,20.20
2018-04-22T19:26:07.739Z,20.10
2018-04-22T19:28:35.284Z,20.00
2018-04-22T19:31:02.771Z,20.00
2018-04-22T19:33:30.241Z,19.80
2018-04-22T19:35:57.732Z,19.90
2018-04-22T19:38:25.442Z,19.80
2018-04-22T19:40:53.748Z,19.80
2018-04-22T19:43:21.625Z,19.70
2018-04-22T19:45:49.083Z,19.60
2018-04-22T19:48:17.341Z,19.50
2018-04-22T19:50:46.009Z,19.50
2018-04-22T19:53:13.538Z,19.50
2018-04-22T19:55:41.070Z,19.50
2018-04-22T19:58:08.566Z,19.50
2018-04-22T20:00:36.274Z,19.40
2018-04-22T20:03:04.714Z,19.30
2018-04-22T20:05:32.213Z,19.30
2018-04-22T20:08:00.492Z,19.20
2018-04-22T20:10:27.970Z,19.20
2018-04-22T20:12:56.260Z,19.10
2018-04-22T20:15:23.760Z,19.00
2018-04-22T20:17:51.254Z,19.00
2018-04-22T20:20:19.497Z,18.90
2018-04-22T20:22:46.974Z,18.90
2018-04-22T20:25:15.272Z,18.80
2018-04-22T20:27:43.359Z,18.80
2018-04-22T20:30:10.865Z,18.70
2018-04-22T20:32:38.395Z,18.70
2018-04-22T20:35:05.926Z,18.60
2018-04-22T20:37:34.828Z,18.50
2018-04-22T20:40:03.486Z,18.60
2018-04-22T20:42:31.811Z,18.50
2018-04-22T20:44:59.359Z,18.50
2018-04-22T20:47:26.885Z,18.50
2018-04-22T20:49:54.400Z,18.50
2018-04-22T20:52:21.864Z,18.40
2018-04-22T20:54:49.351Z,18.40
2018-04-22T20:57:17.658Z,18.30
2018-04-22T20:59:45.138Z,18.20
2018-04-22T21:02:12.602Z,18.20
2018-04-22T21:04:40.089Z,18.20
2018-04-22T21:07:07.574Z,18.20
2018-04-22T21:09:35.053Z,18.10
2018-04-22T21:12:02.573Z,18.20
2018-04-22T21:14:30.805Z,18.10
2018-04-22T21:16:58.276Z,18.10
2018-04-22T21:19:25.790Z,18.10
2018-04-22T21:21:53.267Z,18.00
2018-04-22T21:24:20.745Z,17.90
2018-04-22T21:26:48.248Z,17.70
2018-04-22T21:29:16.823Z,17.50
2018-04-22T21:31:45.075Z,17.60
2018-04-22T21:34:12.566Z,17.60
2018-04-22T21:36:40.804Z,17.60
2018-04-22T21:39:08.278Z,17.60
2018-04-22T21:41:35.766Z,17.60
2018-04-22T21:44:03.252Z,17.60
2018-04-22T21:46:30.730Z,17.50
2018-04-22T21:48:58.205Z,17.20
2018-04-22T21:51:25.682Z,17.00
2018-04-22T21:53:53.194Z,16.80
2018-04-22T21:56:20.664Z,16.60
2018-04-22T21:58:48.156Z,16.50
2018-04-22T22:01:15.643Z,16.40
2018-04-22T22:03:43.139Z,16.30
2018-04-22T22:06:10.636Z,16.20
2018-04-22T22:08:38.123Z,16.10
2018-04-22T22:11:05.607Z,16.00
2018-04-22T22:13:33.068Z,16.00
2018-04-22T22:16:00.542Z,15.80
2018-04-22T22:18:28.026Z,15.70
2018-04-22T22:20:56.272Z,15.50
2018-04-22T22:23:23.777Z,15.60
2018-04-22T22:25:51.239Z,15.50
2018-04-22T22:28:19.792Z,15.50
2018-04-22T22:30:48.043Z,15.50
2018-04-22T22:33:15.521Z,15.40
2018-04-22T22:35:43.772Z,15.40
2018-04-22T22:38:11.244Z,15.40
2018-04-22T22:40:39.480Z,15.30
2018-04-22T22:43:06.967Z,15.30
2018-04-22T22:45:34.447Z,15.40
2018-04-22T22:48:02.677Z,15.30
2018-04-22T22:50:30.454Z,15.20
2018-04-22T22:52:58.057Z,15.20
2018-04-22T22:55:25.557Z,15.20
2018-04-22T22:57:53.072Z,15.30
2018-04-22T23:00:21.449Z,15.20
2018-04-22T23:02:49.819Z,15.20
2018-04-22T23:05:18.060Z,15.00
2018-04-22T23:07:45.538Z,14.90
2018-04-22T23:10:13.010Z,14.90
2018-04-22T23:12:40.500Z,14.80
2018-04-22T23:15:08.042Z,14.70
2018-04-22T23:17:35.506Z,14.60
2018-04-22T23:20:03.002Z,14.60
2018-04-22T23:22:30.480Z,14.50
2018-04-22T23:24:57.970Z,14.50
2018-04-22T23:27:25.441Z,14.50
2018-04-22T23:29:52.912Z,14.60
2018-04-22T23:32:20.373Z,14.70
2018-04-22T23:34:47.841Z,14.70
2018-04-22T23:37:15.353Z,14.80
2018-04-22T23:39:43.584Z,15.20
2018-04-22T23:42:11.061Z,15.10
2018-04-22T23:44:39.312Z,15.20
2018-04-22T23:47:06.790Z,15.20
2018-04-22T23:49:34.293Z,15.10
2018-04-22T23:52:01.765Z,15.00
2018-04-22T23:54:29.227Z,14.90
2018-04-22T23:56:56.728Z,14.70
2018-04-22T23:59:24.973Z,14.60
